20°C Temp
13°C Dewpoint
64% Humidity
Temperature
11 KM/H
7 MPH
6 KTS
240°
West South
West

Wind Speed
Clear
Conditions
Pressure 1017.95 (hPa) - 30.06 (in)
Visibility 6.0 (mi) - 9.7 (km)

Current Conditions
LIRQ
Location 70(km)
Metar :LIRQ 261950Z 24006KT CAVOK 20/13 Q1018
Sun 26th May 21:50 pm

Airport
  Metar Aviation API Data Provided by https://www.checkwx.com/ PHP scripts by weather34.com ©2024